Miltona, Minnesota
Current Conditions -  °F | °C
As of 10:53 PM on Thursday 30 Oct 2014 (Local Time) from KAXN Reporting Station
Clear Clear  
Wind Chill: -8°   Ceiling: Unl
Heat Index: -1°   Visibility: 10mi
Dew Point: -8°   Wind: 18mph
Humidity: 59%   Direction: 10°N
Pressure: 30.44"   Gusts: 29mph
Location:  46.04°N, 95.29°W
Report Text: KAXN 310353Z AUTO 01016G25KT 10SM CLR M01/M08 A3044 RMK AO2 PK WND 01028/0331 SLP326 T10111083
Loading
Personal Weather Stations






























Interactive Weather Map
Tropical Storm Tracking
New forecast layout! Learn more

10-Day Weather Forecast

Advertisements
Track Severe Weather on mobile